sensor_id;sensor_type;location;lat;lon;timestamp;P1;durP1;ratioP1;P2;durP2;ratioP2
18443;SDS011;9350;53.176;8.194;2024-02-04T00:02:01;10.48;;;2.72;;
18443;SDS011;9350;53.176;8.194;2024-02-04T00:04:29;9.32;;;2.83;;
18443;SDS011;9350;53.176;8.194;2024-02-04T00:06:57;11.88;;;2.72;;
18443;SDS011;9350;53.176;8.194;2024-02-04T00:09:24;16.35;;;3.33;;
18443;SDS011;9350;53.176;8.194;2024-02-04T00:11:52;8.48;;;2.60;;
18443;SDS011;9350;53.176;8.194;2024-02-04T00:14:19;11.80;;;3.22;;
18443;SDS011;9350;53.176;8.194;2024-02-04T00:16:46;13.98;;;2.58;;
18443;SDS011;9350;53.176;8.194;2024-02-04T00:19:14;12.23;;;3.10;;
18443;SDS011;9350;53.176;8.194;2024-02-04T00:21:41;15.60;;;3.42;;
18443;SDS011;9350;53.176;8.194;2024-02-04T00:24:08;13.60;;;2.67;;
18443;SDS011;9350;53.176;8.194;2024-02-04T00:26:34;8.35;;;2.78;;
18443;SDS011;9350;53.176;8.194;2024-02-04T00:29:01;10.23;;;2.72;;
18443;SDS011;9350;53.176;8.194;2024-02-04T00:31:28;13.70;;;3.60;;
18443;SDS011;9350;53.176;8.194;2024-02-04T00:33:55;11.25;;;2.88;;
18443;SDS011;9350;53.176;8.194;2024-02-04T00:36:23;7.55;;;2.85;;
18443;SDS011;9350;53.176;8.194;2024-02-04T00:38:50;11.77;;;2.70;;
18443;SDS011;9350;53.176;8.194;2024-02-04T00:41:17;9.23;;;3.25;;
18443;SDS011;9350;53.176;8.194;2024-02-04T00:43:44;12.02;;;2.90;;
18443;SDS011;9350;53.176;8.194;2024-02-04T00:46:10;16.67;;;3.33;;
18443;SDS011;9350;53.176;8.194;2024-02-04T00:48:37;14.77;;;3.42;;
18443;SDS011;9350;53.176;8.194;2024-02-04T00:51:05;10.25;;;2.83;;
18443;SDS011;9350;53.176;8.194;2024-02-04T00:53:33;5.28;;;2.90;;
18443;SDS011;9350;53.176;8.194;2024-02-04T00:56:02;8.98;;;3.05;;
18443;SDS011;9350;53.176;8.194;2024-02-04T00:58:29;10.50;;;3.33;;
18443;SDS011;9350;53.176;8.194;2024-02-04T01:00:56;12.30;;;3.63;;
18443;SDS011;9350;53.176;8.194;2024-02-04T01:03:23;8.60;;;3.40;;
18443;SDS011;9350;53.176;8.194;2024-02-04T01:05:50;11.88;;;3.15;;
18443;SDS011;9350;53.176;8.194;2024-02-04T01:08:17;21.77;;;4.13;;
18443;SDS011;9350;53.176;8.194;2024-02-04T01:10:45;11.50;;;3.70;;
18443;SDS011;9350;53.176;8.194;2024-02-04T01:13:12;14.70;;;3.72;;
18443;SDS011;9350;53.176;8.194;2024-02-04T01:15:39;18.23;;;4.20;;
18443;SDS011;9350;53.176;8.194;2024-02-04T01:18:06;14.57;;;4.45;;
18443;SDS011;9350;53.176;8.194;2024-02-04T01:20:32;12.98;;;4.30;;
18443;SDS011;9350;53.176;8.194;2024-02-04T01:22:59;8.38;;;4.10;;
18443;SDS011;9350;53.176;8.194;2024-02-04T01:25:26;14.82;;;4.55;;
18443;SDS011;9350;53.176;8.194;2024-02-04T01:27:54;10.70;;;4.53;;
18443;SDS011;9350;53.176;8.194;2024-02-04T01:30:21;18.15;;;5.13;;
18443;SDS011;9350;53.176;8.194;2024-02-04T01:32:48;14.95;;;4.22;;
18443;SDS011;9350;53.176;8.194;2024-02-04T01:35:15;14.48;;;4.43;;
18443;SDS011;9350;53.176;8.194;2024-02-04T01:37:42;15.68;;;4.75;;
18443;SDS011;9350;53.176;8.194;2024-02-04T01:40:09;11.90;;;4.43;;
18443;SDS011;9350;53.176;8.194;2024-02-04T01:42:37;17.20;;;4.40;;
18443;SDS011;9350;53.176;8.194;2024-02-04T01:45:05;14.30;;;5.03;;
18443;SDS011;9350;53.176;8.194;2024-02-04T01:47:33;16.90;;;4.30;;
18443;SDS011;9350;53.176;8.194;2024-02-04T01:50:00;14.13;;;4.05;;
18443;SDS011;9350;53.176;8.194;2024-02-04T01:52:29;8.55;;;3.80;;
18443;SDS011;9350;53.176;8.194;2024-02-04T01:54:57;13.60;;;4.18;;
18443;SDS011;9350;53.176;8.194;2024-02-04T01:57:25;7.93;;;3.70;;
18443;SDS011;9350;53.176;8.194;2024-02-04T01:59:52;14.52;;;4.53;;
18443;SDS011;9350;53.176;8.194;2024-02-04T02:02:22;13.48;;;4.28;;
18443;SDS011;9350;53.176;8.194;2024-02-04T02:04:49;15.20;;;5.13;;
18443;SDS011;9350;53.176;8.194;2024-02-04T02:07:17;12.90;;;3.92;;
18443;SDS011;9350;53.176;8.194;2024-02-04T02:09:45;12.00;;;3.83;;
18443;SDS011;9350;53.176;8.194;2024-02-04T02:12:13;14.80;;;4.32;;
18443;SDS011;9350;53.176;8.194;2024-02-04T02:14:44;12.15;;;3.80;;
18443;SDS011;9350;53.176;8.194;2024-02-04T02:17:16;9.57;;;4.00;;
18443;SDS011;9350;53.176;8.194;2024-02-04T02:19:52;9.88;;;3.63;;
18443;SDS011;9350;53.176;8.194;2024-02-04T02:22:26;16.00;;;4.63;;
18443;SDS011;9350;53.176;8.194;2024-02-04T02:24:56;9.80;;;3.45;;
18443;SDS011;9350;53.176;8.194;2024-02-04T02:27:24;15.32;;;3.72;;
18443;SDS011;9350;53.176;8.194;2024-02-04T02:29:51;9.75;;;3.15;;
18443;SDS011;9350;53.176;8.194;2024-02-04T02:32:17;7.30;;;3.15;;
18443;SDS011;9350;53.176;8.194;2024-02-04T02:34:45;6.57;;;3.00;;
18443;SDS011;9350;53.176;8.194;2024-02-04T02:37:16;9.20;;;3.25;;
18443;SDS011;9350;53.176;8.194;2024-02-04T02:39:48;9.15;;;3.30;;
18443;SDS011;9350;53.176;8.194;2024-02-04T02:42:23;8.50;;;3.08;;
18443;SDS011;9350;53.176;8.194;2024-02-04T02:44:51;10.25;;;2.83;;
18443;SDS011;9350;53.176;8.194;2024-02-04T02:47:18;14.68;;;3.45;;
18443;SDS011;9350;53.176;8.194;2024-02-04T02:49:46;12.82;;;2.95;;
18443;SDS011;9350;53.176;8.194;2024-02-04T02:52:13;12.57;;;3.15;;
18443;SDS011;9350;53.176;8.194;2024-02-04T02:54:40;14.80;;;3.58;;
18443;SDS011;9350;53.176;8.194;2024-02-04T02:57:07;8.55;;;3.13;;
18443;SDS011;9350;53.176;8.194;2024-02-04T02:59:35;9.48;;;2.78;;
18443;SDS011;9350;53.176;8.194;2024-02-04T03:02:02;14.10;;;3.35;;
18443;SDS011;9350;53.176;8.194;2024-02-04T03:04:29;14.50;;;3.10;;
18443;SDS011;9350;53.176;8.194;2024-02-04T03:06:56;14.85;;;2.72;;
18443;SDS011;9350;53.176;8.194;2024-02-04T03:09:23;10.25;;;2.58;;
18443;SDS011;9350;53.176;8.194;2024-02-04T03:11:49;14.18;;;2.65;;
18443;SDS011;9350;53.176;8.194;2024-02-04T03:14:16;9.00;;;2.33;;
18443;SDS011;9350;53.176;8.194;2024-02-04T03:16:45;7.53;;;2.30;;
18443;SDS011;9350;53.176;8.194;2024-02-04T03:19:12;14.13;;;2.50;;
18443;SDS011;9350;53.176;8.194;2024-02-04T03:21:39;12.85;;;3.58;;
18443;SDS011;9350;53.176;8.194;2024-02-04T03:24:06;10.95;;;2.42;;
18443;SDS011;9350;53.176;8.194;2024-02-04T03:26:32;9.25;;;2.45;;
18443;SDS011;9350;53.176;8.194;2024-02-04T03:28:59;14.32;;;2.58;;
18443;SDS011;9350;53.176;8.194;2024-02-04T03:31:29;14.00;;;2.38;;
18443;SDS011;9350;53.176;8.194;2024-02-04T03:33:58;8.65;;;2.30;;
18443;SDS011;9350;53.176;8.194;2024-02-04T03:36:25;9.00;;;2.13;;
18443;SDS011;9350;53.176;8.194;2024-02-04T03:38:51;11.93;;;2.22;;
18443;SDS011;9350;53.176;8.194;2024-02-04T03:41:19;9.02;;;2.05;;
18443;SDS011;9350;53.176;8.194;2024-02-04T03:43:45;7.22;;;2.53;;
18443;SDS011;9350;53.176;8.194;2024-02-04T03:46:13;8.60;;;1.90;;
18443;SDS011;9350;53.176;8.194;2024-02-04T03:48:40;8.18;;;2.35;;
18443;SDS011;9350;53.176;8.194;2024-02-04T03:51:14;11.30;;;2.13;;
18443;SDS011;9350;53.176;8.194;2024-02-04T03:53:41;7.50;;;1.98;;
18443;SDS011;9350;53.176;8.194;2024-02-04T03:56:08;10.23;;;1.98;;
18443;SDS011;9350;53.176;8.194;2024-02-04T03:58:35;8.00;;;1.90;;
18443;SDS011;9350;53.176;8.194;2024-02-04T04:01:02;9.70;;;2.38;;
18443;SDS011;9350;53.176;8.194;2024-02-04T04:03:29;9.55;;;1.90;;
18443;SDS011;9350;53.176;8.194;2024-02-04T04:05:55;10.43;;;1.90;;
18443;SDS011;9350;53.176;8.194;2024-02-04T04:08:24;8.77;;;2.10;;
18443;SDS011;9350;53.176;8.194;2024-02-04T04:10:50;9.73;;;1.90;;
18443;SDS011;9350;53.176;8.194;2024-02-04T04:13:17;8.38;;;2.08;;
18443;SDS011;9350;53.176;8.194;2024-02-04T04:15:44;10.65;;;2.50;;
18443;SDS011;9350;53.176;8.194;2024-02-04T04:18:11;13.55;;;2.30;;
18443;SDS011;9350;53.176;8.194;2024-02-04T04:20:38;6.85;;;2.40;;
18443;SDS011;9350;53.176;8.194;2024-02-04T04:23:04;11.07;;;2.05;;
18443;SDS011;9350;53.176;8.194;2024-02-04T04:25:33;7.43;;;1.75;;
18443;SDS011;9350;53.176;8.194;2024-02-04T04:27:59;12.98;;;2.25;;
18443;SDS011;9350;53.176;8.194;2024-02-04T04:30:26;8.10;;;2.00;;
18443;SDS011;9350;53.176;8.194;2024-02-04T04:32:53;13.52;;;1.95;;
18443;SDS011;9350;53.176;8.194;2024-02-04T04:35:20;12.25;;;2.20;;
18443;SDS011;9350;53.176;8.194;2024-02-04T04:37:47;15.07;;;2.22;;
18443;SDS011;9350;53.176;8.194;2024-02-04T04:40:14;9.10;;;2.00;;
18443;SDS011;9350;53.176;8.194;2024-02-04T04:42:42;11.23;;;1.80;;
18443;SDS011;9350;53.176;8.194;2024-02-04T04:45:10;13.55;;;1.83;;
18443;SDS011;9350;53.176;8.194;2024-02-04T04:47:37;10.02;;;2.35;;
18443;SDS011;9350;53.176;8.194;2024-02-04T04:50:03;8.10;;;2.10;;
18443;SDS011;9350;53.176;8.194;2024-02-04T04:52:31;9.20;;;1.98;;
18443;SDS011;9350;53.176;8.194;2024-02-04T04:54:58;9.18;;;1.70;;
18443;SDS011;9350;53.176;8.194;2024-02-04T04:57:24;9.93;;;1.80;;
18443;SDS011;9350;53.176;8.194;2024-02-04T04:59:53;15.30;;;1.63;;
18443;SDS011;9350;53.176;8.194;2024-02-04T05:02:19;9.63;;;1.90;;
18443;SDS011;9350;53.176;8.194;2024-02-04T05:04:46;10.93;;;2.00;;
18443;SDS011;9350;53.176;8.194;2024-02-04T05:07:13;7.47;;;1.40;;
18443;SDS011;9350;53.176;8.194;2024-02-04T05:09:40;10.95;;;1.73;;
18443;SDS011;9350;53.176;8.194;2024-02-04T05:12:08;12.68;;;2.03;;
18443;SDS011;9350;53.176;8.194;2024-02-04T05:14:35;8.98;;;1.50;;
18443;SDS011;9350;53.176;8.194;2024-02-04T05:17:03;8.23;;;1.90;;
18443;SDS011;9350;53.176;8.194;2024-02-04T05:19:30;12.02;;;2.00;;
18443;SDS011;9350;53.176;8.194;2024-02-04T05:21:57;5.63;;;1.48;;
18443;SDS011;9350;53.176;8.194;2024-02-04T05:24:24;5.60;;;1.90;;
18443;SDS011;9350;53.176;8.194;2024-02-04T05:26:50;11.23;;;1.83;;
18443;SDS011;9350;53.176;8.194;2024-02-04T05:29:17;8.02;;;1.50;;
18443;SDS011;9350;53.176;8.194;2024-02-04T05:31:44;12.38;;;2.10;;
18443;SDS011;9350;53.176;8.194;2024-02-04T05:34:12;9.98;;;2.10;;
18443;SDS011;9350;53.176;8.194;2024-02-04T05:36:40;5.57;;;1.95;;
18443;SDS011;9350;53.176;8.194;2024-02-04T05:39:10;9.90;;;2.10;;
18443;SDS011;9350;53.176;8.194;2024-02-04T05:41:37;8.75;;;1.92;;
18443;SDS011;9350;53.176;8.194;2024-02-04T05:44:04;8.77;;;1.83;;
18443;SDS011;9350;53.176;8.194;2024-02-04T05:46:31;8.10;;;1.98;;
18443;SDS011;9350;53.176;8.194;2024-02-04T05:48:58;7.25;;;1.80;;
18443;SDS011;9350;53.176;8.194;2024-02-04T05:51:26;12.55;;;2.08;;
18443;SDS011;9350;53.176;8.194;2024-02-04T05:53:53;9.35;;;2.00;;
18443;SDS011;9350;53.176;8.194;2024-02-04T05:56:20;8.38;;;2.10;;
18443;SDS011;9350;53.176;8.194;2024-02-04T05:58:47;6.43;;;2.00;;
18443;SDS011;9350;53.176;8.194;2024-02-04T06:01:15;6.07;;;1.85;;
18443;SDS011;9350;53.176;8.194;2024-02-04T06:03:42;7.40;;;1.85;;
18443;SDS011;9350;53.176;8.194;2024-02-04T06:06:09;4.90;;;1.73;;
18443;SDS011;9350;53.176;8.194;2024-02-04T06:08:41;17.02;;;2.45;;
18443;SDS011;9350;53.176;8.194;2024-02-04T06:11:09;6.53;;;1.92;;
18443;SDS011;9350;53.176;8.194;2024-02-04T06:13:36;10.15;;;2.25;;
18443;SDS011;9350;53.176;8.194;2024-02-04T06:16:04;12.27;;;2.92;;
18443;SDS011;9350;53.176;8.194;2024-02-04T06:18:31;7.13;;;2.35;;
18443;SDS011;9350;53.176;8.194;2024-02-04T06:20:58;19.92;;;2.22;;
18443;SDS011;9350;53.176;8.194;2024-02-04T06:23:25;12.20;;;2.67;;
18443;SDS011;9350;53.176;8.194;2024-02-04T06:25:53;17.33;;;2.72;;
18443;SDS011;9350;53.176;8.194;2024-02-04T06:28:20;6.53;;;2.20;;
18443;SDS011;9350;53.176;8.194;2024-02-04T06:30:48;13.70;;;2.50;;
18443;SDS011;9350;53.176;8.194;2024-02-04T06:33:15;12.23;;;2.97;;
18443;SDS011;9350;53.176;8.194;2024-02-04T06:35:42;13.93;;;3.13;;
18443;SDS011;9350;53.176;8.194;2024-02-04T06:38:09;12.27;;;3.10;;
18443;SDS011;9350;53.176;8.194;2024-02-04T06:40:35;11.93;;;2.95;;
18443;SDS011;9350;53.176;8.194;2024-02-04T06:43:04;11.63;;;2.55;;
18443;SDS011;9350;53.176;8.194;2024-02-04T06:45:30;10.93;;;3.08;;
18443;SDS011;9350;53.176;8.194;2024-02-04T06:47:57;12.20;;;2.97;;
18443;SDS011;9350;53.176;8.194;2024-02-04T06:50:24;14.18;;;3.10;;
18443;SDS011;9350;53.176;8.194;2024-02-04T06:52:51;17.02;;;3.08;;
18443;SDS011;9350;53.176;8.194;2024-02-04T06:55:17;10.70;;;2.70;;
18443;SDS011;9350;53.176;8.194;2024-02-04T06:57:44;20.77;;;3.00;;
18443;SDS011;9350;53.176;8.194;2024-02-04T07:00:13;9.23;;;3.03;;
18443;SDS011;9350;53.176;8.194;2024-02-04T07:02:40;8.80;;;2.53;;
18443;SDS011;9350;53.176;8.194;2024-02-04T07:05:07;17.42;;;2.88;;
18443;SDS011;9350;53.176;8.194;2024-02-04T07:07:35;11.07;;;2.50;;
18443;SDS011;9350;53.176;8.194;2024-02-04T07:10:02;10.63;;;2.53;;
18443;SDS011;9350;53.176;8.194;2024-02-04T07:12:29;17.98;;;2.80;;
18443;SDS011;9350;53.176;8.194;2024-02-04T07:14:56;10.88;;;2.40;;
18443;SDS011;9350;53.176;8.194;2024-02-04T07:17:25;13.90;;;2.83;;
18443;SDS011;9350;53.176;8.194;2024-02-04T07:19:51;10.35;;;2.58;;
18443;SDS011;9350;53.176;8.194;2024-02-04T07:22:18;12.13;;;2.88;;
18443;SDS011;9350;53.176;8.194;2024-02-04T07:24:45;11.45;;;2.45;;
18443;SDS011;9350;53.176;8.194;2024-02-04T07:27:12;15.75;;;2.70;;
18443;SDS011;9350;53.176;8.194;2024-02-04T07:29:39;13.90;;;2.30;;
18443;SDS011;9350;53.176;8.194;2024-02-04T07:32:06;7.00;;;2.05;;
18443;SDS011;9350;53.176;8.194;2024-02-04T07:34:34;11.00;;;2.25;;
18443;SDS011;9350;53.176;8.194;2024-02-04T07:37:01;8.43;;;2.30;;
18443;SDS011;9350;53.176;8.194;2024-02-04T07:39:28;8.75;;;2.15;;
18443;SDS011;9350;53.176;8.194;2024-02-04T07:41:56;6.22;;;1.77;;
18443;SDS011;9350;53.176;8.194;2024-02-04T07:44:25;17.27;;;2.25;;
18443;SDS011;9350;53.176;8.194;2024-02-04T07:46:52;13.98;;;2.50;;
18443;SDS011;9350;53.176;8.194;2024-02-04T07:49:19;11.55;;;2.13;;
18443;SDS011;9350;53.176;8.194;2024-02-04T07:51:47;12.93;;;2.38;;
18443;SDS011;9350;53.176;8.194;2024-02-04T07:54:14;13.30;;;2.38;;
18443;SDS011;9350;53.176;8.194;2024-02-04T07:56:40;9.70;;;1.90;;
18443;SDS011;9350;53.176;8.194;2024-02-04T07:59:07;11.73;;;2.00;;
18443;SDS011;9350;53.176;8.194;2024-02-04T08:01:34;13.27;;;2.42;;
18443;SDS011;9350;53.176;8.194;2024-02-04T08:04:01;8.73;;;1.70;;
18443;SDS011;9350;53.176;8.194;2024-02-04T08:06:28;14.93;;;2.30;;
18443;SDS011;9350;53.176;8.194;2024-02-04T08:08:56;11.02;;;1.90;;
18443;SDS011;9350;53.176;8.194;2024-02-04T08:11:23;8.90;;;1.75;;
18443;SDS011;9350;53.176;8.194;2024-02-04T08:13:50;9.63;;;2.20;;
18443;SDS011;9350;53.176;8.194;2024-02-04T08:16:17;12.35;;;1.90;;
18443;SDS011;9350;53.176;8.194;2024-02-04T08:18:43;12.23;;;2.13;;
18443;SDS011;9350;53.176;8.194;2024-02-04T08:21:10;10.68;;;2.13;;
18443;SDS011;9350;53.176;8.194;2024-02-04T08:23:37;10.27;;;1.92;;
18443;SDS011;9350;53.176;8.194;2024-02-04T08:26:06;12.15;;;1.95;;
18443;SDS011;9350;53.176;8.194;2024-02-04T08:28:33;11.63;;;1.98;;
18443;SDS011;9350;53.176;8.194;2024-02-04T08:30:59;8.15;;;2.05;;
18443;SDS011;9350;53.176;8.194;2024-02-04T08:33:26;11.27;;;2.58;;
18443;SDS011;9350;53.176;8.194;2024-02-04T08:35:53;11.77;;;2.20;;
18443;SDS011;9350;53.176;8.194;2024-02-04T08:38:20;12.65;;;2.50;;
18443;SDS011;9350;53.176;8.194;2024-02-04T08:40:46;10.45;;;1.90;;
18443;SDS011;9350;53.176;8.194;2024-02-04T08:43:15;12.68;;;2.33;;
18443;SDS011;9350;53.176;8.194;2024-02-04T08:45:41;11.82;;;2.38;;
18443;SDS011;9350;53.176;8.194;2024-02-04T08:48:08;13.02;;;2.22;;
18443;SDS011;9350;53.176;8.194;2024-02-04T08:50:35;12.38;;;1.95;;
18443;SDS011;9350;53.176;8.194;2024-02-04T08:53:02;13.82;;;2.28;;
18443;SDS011;9350;53.176;8.194;2024-02-04T08:55:29;21.35;;;2.50;;
18443;SDS011;9350;53.176;8.194;2024-02-04T08:57:55;12.15;;;2.08;;
18443;SDS011;9350;53.176;8.194;2024-02-04T09:00:24;15.77;;;2.38;;
18443;SDS011;9350;53.176;8.194;2024-02-04T09:02:50;24.55;;;2.30;;
18443;SDS011;9350;53.176;8.194;2024-02-04T09:05:17;14.00;;;2.30;;
18443;SDS011;9350;53.176;8.194;2024-02-04T09:07:45;14.40;;;2.15;;
18443;SDS011;9350;53.176;8.194;2024-02-04T09:10:12;15.93;;;2.85;;
18443;SDS011;9350;53.176;8.194;2024-02-04T09:12:39;16.33;;;2.70;;
18443;SDS011;9350;53.176;8.194;2024-02-04T09:15:06;10.30;;;2.35;;
18443;SDS011;9350;53.176;8.194;2024-02-04T09:17:34;10.23;;;1.92;;
18443;SDS011;9350;53.176;8.194;2024-02-04T09:20:02;13.07;;;2.15;;
18443;SDS011;9350;53.176;8.194;2024-02-04T09:22:35;15.00;;;2.00;;
18443;SDS011;9350;53.176;8.194;2024-02-04T09:25:02;20.70;;;2.42;;
18443;SDS011;9350;53.176;8.194;2024-02-04T09:27:30;14.13;;;2.20;;
18443;SDS011;9350;53.176;8.194;2024-02-04T09:29:56;12.82;;;2.10;;
18443;SDS011;9350;53.176;8.194;2024-02-04T09:32:23;14.13;;;2.72;;
18443;SDS011;9350;53.176;8.194;2024-02-04T09:34:52;11.13;;;2.13;;
18443;SDS011;9350;53.176;8.194;2024-02-04T09:37:19;10.20;;;2.13;;
18443;SDS011;9350;53.176;8.194;2024-02-04T09:39:45;13.27;;;2.28;;
18443;SDS011;9350;53.176;8.194;2024-02-04T09:42:20;12.05;;;1.90;;
18443;SDS011;9350;53.176;8.194;2024-02-04T09:44:48;11.88;;;2.60;;
18443;SDS011;9350;53.176;8.194;2024-02-04T09:47:16;13.35;;;2.40;;
18443;SDS011;9350;53.176;8.194;2024-02-04T09:49:43;9.60;;;2.05;;
18443;SDS011;9350;53.176;8.194;2024-02-04T09:52:11;9.90;;;2.00;;
18443;SDS011;9350;53.176;8.194;2024-02-04T09:54:40;13.48;;;2.50;;
18443;SDS011;9350;53.176;8.194;2024-02-04T09:57:10;10.32;;;2.10;;
18443;SDS011;9350;53.176;8.194;2024-02-04T09:59:37;16.85;;;2.60;;
18443;SDS011;9350;53.176;8.194;2024-02-04T10:02:04;13.20;;;2.40;;
18443;SDS011;9350;53.176;8.194;2024-02-04T10:04:32;11.75;;;2.83;;
18443;SDS011;9350;53.176;8.194;2024-02-04T10:06:59;11.63;;;2.65;;
18443;SDS011;9350;53.176;8.194;2024-02-04T10:09:28;16.92;;;2.67;;
18443;SDS011;9350;53.176;8.194;2024-02-04T10:11:57;10.90;;;2.30;;
18443;SDS011;9350;53.176;8.194;2024-02-04T10:14:23;10.98;;;2.90;;
18443;SDS011;9350;53.176;8.194;2024-02-04T10:16:50;13.77;;;2.40;;
18443;SDS011;9350;53.176;8.194;2024-02-04T10:19:17;9.85;;;2.17;;
18443;SDS011;9350;53.176;8.194;2024-02-04T10:21:44;9.15;;;1.90;;
18443;SDS011;9350;53.176;8.194;2024-02-04T10:24:10;8.05;;;2.40;;
18443;SDS011;9350;53.176;8.194;2024-02-04T10:26:39;10.45;;;2.38;;
18443;SDS011;9350;53.176;8.194;2024-02-04T10:29:08;12.90;;;2.83;;
18443;SDS011;9350;53.176;8.194;2024-02-04T10:31:35;10.20;;;2.42;;
18443;SDS011;9350;53.176;8.194;2024-02-04T10:34:02;11.52;;;2.40;;
18443;SDS011;9350;53.176;8.194;2024-02-04T10:36:30;10.35;;;2.08;;
18443;SDS011;9350;53.176;8.194;2024-02-04T10:38:57;18.60;;;2.97;;
18443;SDS011;9350;53.176;8.194;2024-02-04T10:41:24;4.82;;;2.10;;
18443;SDS011;9350;53.176;8.194;2024-02-04T10:43:53;8.70;;;2.22;;
18443;SDS011;9350;53.176;8.194;2024-02-04T10:46:22;11.75;;;2.28;;
18443;SDS011;9350;53.176;8.194;2024-02-04T10:48:55;12.38;;;2.53;;
18443;SDS011;9350;53.176;8.194;2024-02-04T10:51:24;12.75;;;2.38;;
18443;SDS011;9350;53.176;8.194;2024-02-04T10:53:53;10.38;;;2.58;;
18443;SDS011;9350;53.176;8.194;2024-02-04T10:56:22;6.65;;;2.28;;
18443;SDS011;9350;53.176;8.194;2024-02-04T10:58:51;8.25;;;2.05;;
18443;SDS011;9350;53.176;8.194;2024-02-04T11:01:21;12.00;;;2.45;;
18443;SDS011;9350;53.176;8.194;2024-02-04T11:03:48;11.88;;;2.05;;
18443;SDS011;9350;53.176;8.194;2024-02-04T11:06:17;4.30;;;2.35;;
18443;SDS011;9350;53.176;8.194;2024-02-04T11:08:46;8.95;;;2.58;;
18443;SDS011;9350;53.176;8.194;2024-02-04T11:11:13;12.07;;;2.33;;
18443;SDS011;9350;53.176;8.194;2024-02-04T11:13:41;13.30;;;2.40;;
18443;SDS011;9350;53.176;8.194;2024-02-04T11:16:15;4.82;;;2.13;;
18443;SDS011;9350;53.176;8.194;2024-02-04T11:19:08;9.55;;;2.53;;
18443;SDS011;9350;53.176;8.194;2024-02-04T11:21:51;12.40;;;2.45;;
18443;SDS011;9350;53.176;8.194;2024-02-04T11:24:35;9.95;;;2.30;;
18443;SDS011;9350;53.176;8.194;2024-02-04T11:27:16;9.93;;;1.90;;
18443;SDS011;9350;53.176;8.194;2024-02-04T11:29:43;9.45;;;2.53;;
18443;SDS011;9350;53.176;8.194;2024-02-04T11:32:12;10.93;;;2.92;;
18443;SDS011;9350;53.176;8.194;2024-02-04T11:34:39;13.15;;;2.15;;
18443;SDS011;9350;53.176;8.194;2024-02-04T11:37:14;13.20;;;2.20;;
18443;SDS011;9350;53.176;8.194;2024-02-04T11:39:47;10.30;;;2.80;;
18443;SDS011;9350;53.176;8.194;2024-02-04T11:42:14;11.88;;;2.25;;
18443;SDS011;9350;53.176;8.194;2024-02-04T11:44:41;6.38;;;1.80;;
18443;SDS011;9350;53.176;8.194;2024-02-04T11:47:09;11.35;;;2.45;;
18443;SDS011;9350;53.176;8.194;2024-02-04T11:49:37;11.65;;;2.95;;
18443;SDS011;9350;53.176;8.194;2024-02-04T11:52:05;13.40;;;2.22;;
18443;SDS011;9350;53.176;8.194;2024-02-04T11:54:32;9.27;;;2.28;;
18443;SDS011;9350;53.176;8.194;2024-02-04T11:56:59;11.18;;;2.35;;
18443;SDS011;9350;53.176;8.194;2024-02-04T11:59:26;12.60;;;2.13;;
18443;SDS011;9350;53.176;8.194;2024-02-04T12:01:53;10.38;;;1.90;;
18443;SDS011;9350;53.176;8.194;2024-02-04T12:04:21;11.80;;;2.08;;
18443;SDS011;9350;53.176;8.194;2024-02-04T12:06:50;9.18;;;2.88;;
18443;SDS011;9350;53.176;8.194;2024-02-04T12:09:17;11.32;;;2.13;;
18443;SDS011;9350;53.176;8.194;2024-02-04T12:11:45;12.77;;;3.08;;
18443;SDS011;9350;53.176;8.194;2024-02-04T12:14:11;7.15;;;2.08;;
18443;SDS011;9350;53.176;8.194;2024-02-04T12:16:40;9.23;;;2.03;;
18443;SDS011;9350;53.176;8.194;2024-02-04T12:19:07;12.32;;;2.30;;
18443;SDS011;9350;53.176;8.194;2024-02-04T12:21:34;6.50;;;2.10;;
18443;SDS011;9350;53.176;8.194;2024-02-04T12:24:03;7.85;;;1.90;;
18443;SDS011;9350;53.176;8.194;2024-02-04T12:26:30;10.38;;;2.20;;
18443;SDS011;9350;53.176;8.194;2024-02-04T12:28:57;9.88;;;1.98;;
18443;SDS011;9350;53.176;8.194;2024-02-04T12:31:25;7.28;;;1.58;;
18443;SDS011;9350;53.176;8.194;2024-02-04T12:33:54;8.90;;;1.73;;
18443;SDS011;9350;53.176;8.194;2024-02-04T12:36:23;10.85;;;1.90;;
18443;SDS011;9350;53.176;8.194;2024-02-04T12:38:52;10.65;;;1.73;;
18443;SDS011;9350;53.176;8.194;2024-02-04T12:41:21;7.63;;;1.70;;
18443;SDS011;9350;53.176;8.194;2024-02-04T12:43:51;6.50;;;1.80;;
18443;SDS011;9350;53.176;8.194;2024-02-04T12:46:19;10.48;;;2.00;;
18443;SDS011;9350;53.176;8.194;2024-02-04T12:48:50;6.72;;;1.67;;
18443;SDS011;9350;53.176;8.194;2024-02-04T12:51:23;10.60;;;1.92;;
18443;SDS011;9350;53.176;8.194;2024-02-04T12:53:55;5.60;;;2.08;;
18443;SDS011;9350;53.176;8.194;2024-02-04T12:56:40;8.75;;;1.52;;
18443;SDS011;9350;53.176;8.194;2024-02-04T12:59:08;8.95;;;1.70;;
18443;SDS011;9350;53.176;8.194;2024-02-04T13:01:35;8.75;;;1.95;;
18443;SDS011;9350;53.176;8.194;2024-02-04T13:04:02;13.82;;;2.03;;
18443;SDS011;9350;53.176;8.194;2024-02-04T13:06:30;8.18;;;1.60;;
18443;SDS011;9350;53.176;8.194;2024-02-04T13:08:56;6.03;;;1.60;;
18443;SDS011;9350;53.176;8.194;2024-02-04T13:11:24;7.57;;;1.60;;
18443;SDS011;9350;53.176;8.194;2024-02-04T13:13:52;4.45;;;1.42;;
18443;SDS011;9350;53.176;8.194;2024-02-04T13:16:19;9.90;;;1.60;;
18443;SDS011;9350;53.176;8.194;2024-02-04T13:18:51;8.93;;;1.48;;
18443;SDS011;9350;53.176;8.194;2024-02-04T13:21:18;12.50;;;1.98;;
18443;SDS011;9350;53.176;8.194;2024-02-04T13:23:46;12.23;;;1.70;;
18443;SDS011;9350;53.176;8.194;2024-02-04T13:26:14;5.93;;;1.58;;
18443;SDS011;9350;53.176;8.194;2024-02-04T13:28:41;6.32;;;1.45;;
18443;SDS011;9350;53.176;8.194;2024-02-04T13:31:09;8.05;;;1.70;;
18443;SDS011;9350;53.176;8.194;2024-02-04T13:33:37;10.65;;;1.65;;
18443;SDS011;9350;53.176;8.194;2024-02-04T13:36:04;6.25;;;1.60;;
18443;SDS011;9350;53.176;8.194;2024-02-04T13:38:32;13.05;;;1.75;;
18443;SDS011;9350;53.176;8.194;2024-02-04T13:40:59;6.50;;;1.63;;
18443;SDS011;9350;53.176;8.194;2024-02-04T13:43:25;8.18;;;1.77;;
18443;SDS011;9350;53.176;8.194;2024-02-04T13:45:53;9.52;;;2.25;;
18443;SDS011;9350;53.176;8.194;2024-02-04T13:48:21;7.68;;;1.60;;
18443;SDS011;9350;53.176;8.194;2024-02-04T13:50:50;6.82;;;1.70;;
18443;SDS011;9350;53.176;8.194;2024-02-04T13:53:19;13.18;;;1.75;;
18443;SDS011;9350;53.176;8.194;2024-02-04T13:55:45;5.80;;;1.70;;
18443;SDS011;9350;53.176;8.194;2024-02-04T13:58:12;8.25;;;2.05;;
18443;SDS011;9350;53.176;8.194;2024-02-04T14:00:39;9.45;;;1.60;;
18443;SDS011;9350;53.176;8.194;2024-02-04T14:03:06;6.47;;;1.85;;
18443;SDS011;9350;53.176;8.194;2024-02-04T14:05:34;8.68;;;1.90;;
18443;SDS011;9350;53.176;8.194;2024-02-04T14:08:01;8.32;;;1.90;;
18443;SDS011;9350;53.176;8.194;2024-02-04T14:10:28;5.63;;;1.60;;
18443;SDS011;9350;53.176;8.194;2024-02-04T14:12:55;7.63;;;1.75;;
18443;SDS011;9350;53.176;8.194;2024-02-04T14:15:22;10.10;;;1.80;;
18443;SDS011;9350;53.176;8.194;2024-02-04T14:17:49;5.22;;;1.98;;
18443;SDS011;9350;53.176;8.194;2024-02-04T14:20:16;5.65;;;1.50;;
18443;SDS011;9350;53.176;8.194;2024-02-04T14:22:44;3.72;;;1.50;;
18443;SDS011;9350;53.176;8.194;2024-02-04T14:25:11;8.88;;;1.60;;
18443;SDS011;9350;53.176;8.194;2024-02-04T14:27:38;6.90;;;1.50;;
18443;SDS011;9350;53.176;8.194;2024-02-04T14:30:06;11.00;;;1.70;;
18443;SDS011;9350;53.176;8.194;2024-02-04T14:32:33;8.38;;;1.92;;
18443;SDS011;9350;53.176;8.194;2024-02-04T14:35:00;8.35;;;2.08;;
18443;SDS011;9350;53.176;8.194;2024-02-04T14:37:29;9.95;;;1.90;;
18443;SDS011;9350;53.176;8.194;2024-02-04T14:39:58;8.98;;;2.20;;
18443;SDS011;9350;53.176;8.194;2024-02-04T14:42:26;8.27;;;1.85;;
18443;SDS011;9350;53.176;8.194;2024-02-04T14:44:52;3.05;;;1.42;;
18443;SDS011;9350;53.176;8.194;2024-02-04T14:47:19;4.50;;;1.80;;
18443;SDS011;9350;53.176;8.194;2024-02-04T14:49:46;10.63;;;1.63;;
18443;SDS011;9350;53.176;8.194;2024-02-04T14:52:13;9.05;;;1.40;;
18443;SDS011;9350;53.176;8.194;2024-02-04T14:54:42;6.47;;;2.10;;
18443;SDS011;9350;53.176;8.194;2024-02-04T14:57:11;6.43;;;1.73;;